Time,TemperatureF,DewpointF,PressureIn,WindDirection,WindDirectionDegrees,WindSpeedMPH,WindSpeedGustMPH,Humidity,HourlyPrecipIn,Conditions,Clouds,dailyrainin,SolarRadiationWatts/m^2,SoftwareType,DateUTC
2013-01-19 00:02:00,43.1,34.3,29.92,WSW,238,12.7,12.7,71,0.00,CLR,,0.00,0.0,WeatherDisplay:10.37,2013-01-19 06:02:00,
2013-01-19 00:07:00,43.1,34.3,29.93,SW,215,12.7,12.7,71,0.00,RA,,0.00,0.0,WeatherDisplay:10.37,2013-01-19 06:07:00,
2013-01-19 00:12:00,43.1,34.3,29.93,SSW,213,10.4,10.4,71,0.00,RA,,0.00,0.0,WeatherDisplay:10.37,2013-01-19 06:12:00,
2013-01-19 00:17:00,42.9,34.1,29.93,SW,214,12.7,12.7,71,0.00,CLR,,0.00,0.0,WeatherDisplay:10.37,2013-01-19 06:17:00,
2013-01-19 00:22:00,42.7,34.3,29.93,SSW,204,10.4,10.4,72,0.00,CLR,,0.00,0.0,WeatherDisplay:10.37,2013-01-19 06:22:00,
2013-01-19 00:27:00,42.6,34.2,29.93,SSW,210,12.7,12.7,72,0.00,CLR,,0.00,0.0,WeatherDisplay:10.37,2013-01-19 06:27:00,
2013-01-19 00:32:00,42.4,34.0,29.93,SSW,210,10.4,10.4,72,0.00,CLR,,0.00,0.0,WeatherDisplay:10.37,2013-01-19 06:32:00,
2013-01-19 00:37:00,42.1,34.1,29.93,SW,214,10.4,10.4,73,0.00,CLR,,0.00,0.0,WeatherDisplay:10.37,2013-01-19 06:37:00,
2013-01-19 00:42:00,42.0,34.0,29.93,SSW,205,8.1,8.1,73,0.00,CLR,,0.00,0.0,WeatherDisplay:10.37,2013-01-19 06:42:00,
2013-01-19 00:47:00,41.9,33.9,29.93,SSW,208,3.5,3.5,73,0.00,CLR,,0.00,0.0,WeatherDisplay:10.37,2013-01-19 06:47:00,
2013-01-19 00:52:00,41.8,34.1,29.93,SW,217,10.4,10.4,74,0.00,CLR,,0.00,0.0,WeatherDisplay:10.37,2013-01-19 06:52:00,
2013-01-19 00:57:00,41.7,34.0,29.93,SW,218,12.7,12.7,74,0.00,CLR,,0.00,0.0,WeatherDisplay:10.37,2013-01-19 06:57:00,
2013-01-19 01:02:00,41.6,33.9,29.93,SSW,213,4.6,4.8,74,0.00,CLR,,0.00,0.0,WeatherDisplay:10.37,2013-01-19 07:02:00,
2013-01-19 01:08:00,41.5,33.8,29.93,SW,220,11.5,11.5,74,0.00,CLR,,0.00,0.0,WeatherDisplay:10.37,2013-01-19 07:08:00,
2013-01-19 01:13:00,41.5,33.8,29.93,SW,228,11.5,11.5,74,0.00,CLR,,0.00,0.0,WeatherDisplay:10.37,2013-01-19 07:13:00,
2013-01-19 01:18:00,41.4,34.1,29.93,SSW,210,15.0,15.0,75,0.00,CLR,,0.00,0.0,WeatherDisplay:10.37,2013-01-19 07:18:00,
2013-01-19 01:23:00,41.3,34.0,29.93,SW,236,15.0,15.0,75,0.00,CLR,,0.00,0.0,WeatherDisplay:10.37,2013-01-19 07:23:00,
2013-01-19 01:28:00,41.1,33.8,29.93,SW,217,10.4,10.4,75,0.00,CLR,,0.00,0.0,WeatherDisplay:10.37,2013-01-19 07:28:00,
2013-01-19 01:33:00,41.0,33.7,29.94,SW,220,11.5,11.5,75,0.00,CLR,,0.00,0.0,WeatherDisplay:10.37,2013-01-19 07:33:00,
2013-01-19 01:38:00,40.9,33.9,29.94,SW,217,10.4,10.4,76,0.00,CLR,,0.00,0.0,WeatherDisplay:10.37,2013-01-19 07:38:00,
2013-01-19 01:43:00,40.8,33.8,29.94,SSW,209,5.8,5.8,76,0.00,CLR,,0.00,0.0,WeatherDisplay:10.37,2013-01-19 07:43:00,
2013-01-19 01:48:00,40.7,33.7,29.94,SW,217,11.5,11.5,76,0.00,CLR,,0.00,0.0,WeatherDisplay:10.37,2013-01-19 07:48:00,
2013-01-19 01:53:00,40.7,33.7,29.94,SSW,213,11.5,11.5,76,0.00,CLR,,0.00,0.0,WeatherDisplay:10.37,2013-01-19 07:53:00,
2013-01-19 01:58:00,40.7,33.7,29.94,SW,214,11.5,11.5,76,0.00,CLR,,0.00,0.0,WeatherDisplay:10.37,2013-01-19 07:58:00,
2013-01-19 02:03:00,40.7,33.7,29.94,SW,214,10.4,10.4,76,0.00,CLR,,0.00,0.0,WeatherDisplay:10.37,2013-01-19 08:03:00,
2013-01-19 02:08:00,40.7,33.7,29.93,SSW,207,11.5,11.5,76,0.00,CLR,,0.00,0.0,WeatherDisplay:10.37,2013-01-19 08:08:00,
2013-01-19 02:13:00,40.8,33.8,29.94,SW,225,10.0,10.0,76,0.00,CLR,,0.00,0.0,WeatherDisplay:10.37,2013-01-19 08:13:00,
2013-01-19 02:18:00,40.9,33.9,29.94,SW,223,9.2,9.2,76,0.00,CLR,,0.00,0.0,WeatherDisplay:10.37,2013-01-19 08:18:00,
2013-01-19 02:23:00,40.9,33.9,29.93,SSW,206,9.2,9.2,76,0.00,CLR,,0.00,0.0,WeatherDisplay:10.37,2013-01-19 08:23:00,
2013-01-19 02:28:00,40.8,33.8,29.93,WSW,238,6.9,6.9,76,0.00,CLR,,0.00,0.0,WeatherDisplay:10.37,2013-01-19 08:28:00,
2013-01-19 02:33:00,40.8,33.8,29.93,SSW,196,7.0,7.0,76,0.00,CLR,,0.00,0.0,WeatherDisplay:10.37,2013-01-19 08:33:00,
2013-01-19 02:38:00,40.8,34.1,29.93,SW,218,11.5,11.5,77,0.00,CLR,,0.00,0.0,WeatherDisplay:10.37,2013-01-19 08:38:00,
2013-01-19 02:43:00,40.9,34.2,29.93,SW,217,10.4,10.4,77,0.00,CLR,,0.00,0.0,WeatherDisplay:10.37,2013-01-19 08:43:00,
2013-01-19 02:48:00,40.9,34.2,29.93,SSW,209,9.2,9.2,77,0.00,CLR,,0.00,0.0,WeatherDisplay:10.37,2013-01-19 08:48:00,
2013-01-19 02:53:00,40.8,34.1,29.93,SW,215,9.2,9.2,77,0.00,CLR,,0.00,0.0,WeatherDisplay:10.37,2013-01-19 08:53:00,
2013-01-19 02:58:00,40.7,34.0,29.93,SW,224,11.5,11.5,77,0.00,CLR,,0.00,0.0,WeatherDisplay:10.37,2013-01-19 08:58:00,
2013-01-19 03:03:00,40.7,34.0,29.93,SW,226,6.9,6.9,77,0.00,CLR,,0.00,0.0,WeatherDisplay:10.37,2013-01-19 09:03:00,
2013-01-19 03:08:00,40.6,34.0,29.92,SSW,213,11.5,11.5,77,0.00,CLR,,0.00,0.0,WeatherDisplay:10.37,2013-01-19 09:08:00,
2013-01-19 03:13:00,40.6,34.0,29.92,SW,218,10.0,10.0,77,0.00,CLR,,0.00,0.0,WeatherDisplay:10.37,2013-01-19 09:13:00,
2013-01-19 03:18:00,40.5,33.9,29.92,SW,214,6.9,6.9,77,0.00,CLR,,0.00,0.0,WeatherDisplay:10.37,2013-01-19 09:18:00,
2013-01-19 03:23:00,40.5,33.9,29.92,SW,221,10.4,10.4,77,0.00,CLR,,0.00,0.0,WeatherDisplay:10.37,2013-01-19 09:23:00,
2013-01-19 03:28:00,40.4,33.8,29.92,SSW,209,6.9,6.9,77,0.00,CLR,,0.00,0.0,WeatherDisplay:10.37,2013-01-19 09:28:00,
2013-01-19 03:33:00,40.4,33.8,29.92,SW,231,13.8,13.8,77,0.00,CLR,,0.00,0.0,WeatherDisplay:10.37,2013-01-19 09:33:00,
2013-01-19 03:38:00,40.3,33.7,29.92,SW,231,6.9,6.9,77,0.00,CLR,,0.00,0.0,WeatherDisplay:10.37,2013-01-19 09:38:00,
2013-01-19 03:43:00,40.2,33.6,29.91,SSW,213,6.0,6.1,77,0.00,CLR,,0.00,0.0,WeatherDisplay:10.37,2013-01-19 09:43:00,
2013-01-19 03:48:00,40.0,33.4,29.91,SSW,200,9.2,9.2,77,0.00,CLR,,0.00,0.0,WeatherDisplay:10.37,2013-01-19 09:48:00,
2013-01-19 03:53:00,40.0,33.7,29.91,SSW,213,5.8,5.8,78,0.00,CLR,,0.00,0.0,WeatherDisplay:10.37,2013-01-19 09:53:00,
2013-01-19 03:58:00,39.9,33.6,29.91,SW,214,5.8,5.8,78,0.00,CLR,,0.00,0.0,WeatherDisplay:10.37,2013-01-19 09:58:00,
2013-01-19 04:03:00,39.8,33.5,29.91,SW,217,4.6,4.6,78,0.00,CLR,,0.00,0.0,WeatherDisplay:10.37,2013-01-19 10:03:00,
2013-01-19 04:08:00,39.8,33.5,29.91,SSW,210,10.4,10.4,78,0.00,CLR,,0.00,0.0,WeatherDisplay:10.37,2013-01-19 10:08:00,
2013-01-19 04:14:00,39.8,33.5,29.91,SSW,209,9.2,9.2,78,0.00,CLR,,0.00,0.0,WeatherDisplay:10.37,2013-01-19 10:14:00,
2013-01-19 04:19:00,39.9,33.6,29.90,SSW,205,6.9,6.9,78,0.00,CLR,,0.00,0.0,WeatherDisplay:10.37,2013-01-19 10:19:00,
2013-01-19 04:24:00,40.1,33.5,29.90,SSW,209,6.9,6.9,77,0.00,CLR,,0.00,0.0,WeatherDisplay:10.37,2013-01-19 10:24:00,
2013-01-19 04:29:00,40.2,33.6,29.90,SW,227,11.5,11.5,77,0.00,CLR,,0.00,0.0,WeatherDisplay:10.37,2013-01-19 10:29:00,
2013-01-19 04:34:00,40.3,33.7,29.90,SW,219,11.5,11.5,77,0.00,CLR,,0.00,0.0,WeatherDisplay:10.37,2013-01-19 10:34:00,
2013-01-19 04:39:00,40.2,33.6,29.90,SSW,195,11.5,11.5,77,0.00,CLR,,0.00,0.0,WeatherDisplay:10.37,2013-01-19 10:39:00,
2013-01-19 04:44:00,40.2,33.6,29.89,South,187,15.0,15.0,77,0.00,CLR,,0.00,0.0,WeatherDisplay:10.37,2013-01-19 10:44:00,
2013-01-19 04:49:00,40.2,33.6,29.90,SSW,208,13.8,13.8,77,0.00,CLR,,0.00,0.0,WeatherDisplay:10.37,2013-01-19 10:49:00,
2013-01-19 04:54:00,40.2,33.6,29.89,SW,215,14.0,14.0,77,0.00,CLR,,0.00,0.0,WeatherDisplay:10.37,2013-01-19 10:54:00,
2013-01-19 04:59:00,40.2,33.6,29.89,SW,219,10.4,10.4,77,0.00,CLR,,0.00,0.0,WeatherDisplay:10.37,2013-01-19 10:59:00,
2013-01-19 05:04:00,40.1,33.5,29.89,SSW,198,8.1,8.1,77,0.00,CLR,,0.00,0.0,WeatherDisplay:10.37,2013-01-19 11:04:00,
2013-01-19 05:09:00,40.0,33.4,29.89,SW,219,11.5,11.5,77,0.00,CLR,,0.00,0.0,WeatherDisplay:10.37,2013-01-19 11:09:00,
2013-01-19 05:15:00,40.0,33.4,29.89,SSW,213,11.5,11.5,77,0.00,CLR,,0.00,0.0,WeatherDisplay:10.37,2013-01-19 11:15:00,
2013-01-19 06:47:00,39.2,33.2,29.87,South,186,6.9,6.9,79,0.00,CLR,,0.00,0.0,WeatherDisplay:10.37,2013-01-19 12:47:00,
2013-01-19 06:48:00,39.2,33.2,29.87,SSW,196,11.5,11.5,79,0.00,CLR,,0.00,0.0,WeatherDisplay:10.37,2013-01-19 12:48:00,
2013-01-19 06:53:00,39.2,33.2,29.87,SSW,198,8.1,8.1,79,0.00,CLR,,0.00,0.0,WeatherDisplay:10.37,2013-01-19 12:53:00,
2013-01-19 06:58:00,39.3,33.3,29.87,South,186,15.0,15.0,79,0.00,CLR,,0.00,0.0,WeatherDisplay:10.37,2013-01-19 12:58:00,
2013-01-19 07:03:00,39.3,33.3,29.87,SSW,207,11.5,11.5,79,0.00,OVC,,0.00,0.0,WeatherDisplay:10.37,2013-01-19 13:03:00,
2013-01-19 07:09:00,39.4,33.4,29.88,SSW,201,11.5,11.5,79,0.00,OVC,,0.00,0.0,WeatherDisplay:10.37,2013-01-19 13:09:00,
2013-01-19 07:14:00,39.3,33.3,29.87,SSW,200,8.1,8.1,79,0.00,OVC,,0.00,0.0,WeatherDisplay:10.37,2013-01-19 13:14:00,
2013-01-19 07:19:00,39.2,33.5,29.87,SW,222,5.8,5.8,80,0.00,OVC,,0.00,0.0,WeatherDisplay:10.37,2013-01-19 13:19:00,
2013-01-19 07:24:00,39.1,33.5,29.87,SSW,211,5.8,5.8,80,0.00,OVC,,0.00,0.0,WeatherDisplay:10.37,2013-01-19 13:24:00,
2013-01-19 07:29:00,39.0,33.4,29.87,SSW,210,9.2,9.2,80,0.00,SCT,,0.00,5.0,WeatherDisplay:10.37,2013-01-19 13:29:00,
2013-01-19 07:34:00,39.0,33.4,29.87,SSW,202,9.2,9.2,80,0.00,OVC,,0.00,9.0,WeatherDisplay:10.37,2013-01-19 13:34:00,
2013-01-19 07:39:00,38.9,33.3,29.87,SSW,195,5.8,5.8,80,0.00,OVC,,0.00,14.0,WeatherDisplay:10.37,2013-01-19 13:39:00,
2013-01-19 07:44:00,38.9,33.3,29.87,South,174,9.2,9.2,80,0.00,OVC,,0.00,23.0,WeatherDisplay:10.37,2013-01-19 13:44:00,
2013-01-19 07:49:00,38.9,33.6,29.87,South,182,10.4,10.4,81,0.00,OVC,,0.00,28.0,WeatherDisplay:10.37,2013-01-19 13:49:00,
2013-01-19 07:54:00,39.0,33.7,29.87,SSW,194,10.4,10.4,81,0.00,BKN,,0.00,40.0,WeatherDisplay:10.37,2013-01-19 13:54:00,
2013-01-19 07:59:00,39.1,33.8,29.87,SW,219,6.9,6.9,81,0.00,OVC,,0.00,33.0,WeatherDisplay:10.37,2013-01-19 13:59:00,
2013-01-19 08:04:00,39.3,34.0,29.87,SSW,205,10.4,10.4,81,0.00,OVC,,0.00,40.0,WeatherDisplay:10.37,2013-01-19 14:04:00,
2013-01-19 08:09:00,39.4,34.1,29.86,SSW,202,11.5,11.5,81,0.00,OVC,,0.00,30.0,WeatherDisplay:10.37,2013-01-19 14:09:00,
2013-01-19 08:14:00,39.6,33.9,29.87,SW,219,12.7,12.7,80,0.00,OVC,,0.00,37.0,WeatherDisplay:10.37,2013-01-19 14:14:00,
2013-01-19 08:19:00,39.7,34.0,29.86,SSW,213,10.4,10.4,80,0.00,OVC,,0.00,47.0,WeatherDisplay:10.37,2013-01-19 14:19:00,
2013-01-19 08:24:00,39.8,34.1,29.87,SSW,206,6.0,6.0,80,0.00,OVC,,0.00,54.0,WeatherDisplay:10.37,2013-01-19 14:24:00,
2013-01-19 08:29:00,40.0,34.3,29.87,SSW,205,6.9,6.9,80,0.00,OVC,,0.00,63.0,WeatherDisplay:10.37,2013-01-19 14:29:00,
2013-01-19 08:34:00,40.2,34.5,29.87,SSW,202,6.9,6.9,80,0.00,OVC,,0.00,84.0,WeatherDisplay:10.37,2013-01-19 14:34:00,
2013-01-19 08:39:00,40.5,34.8,29.87,SSW,192,11.5,11.5,80,0.00,BKN,,0.00,113.0,WeatherDisplay:10.37,2013-01-19 14:39:00,
2013-01-19 08:44:00,40.8,34.8,29.87,SSW,211,11.5,11.5,79,0.00,BKN,,0.00,113.0,WeatherDisplay:10.37,2013-01-19 14:44:00,
2013-01-19 08:49:00,41.1,35.1,29.87,SW,221,8.1,8.1,79,0.00,BKN,,0.00,137.0,WeatherDisplay:10.37,2013-01-19 14:49:00,
2013-01-19 08:54:00,41.4,35.1,29.86,SSW,213,11.5,11.5,78,0.00,BKN,,0.00,132.0,WeatherDisplay:10.37,2013-01-19 14:54:00,
2013-01-19 08:59:00,41.6,35.2,29.86,South,183,10.4,10.4,78,0.00,BKN,,0.00,132.0,WeatherDisplay:10.37,2013-01-19 14:59:00,
2013-01-19 09:04:00,41.8,35.1,29.86,SW,214,11.5,11.5,77,0.00,OVC,,0.00,111.0,WeatherDisplay:10.37,2013-01-19 15:04:00,
2013-01-19 09:09:00,42.0,35.3,29.86,SW,215,11.5,11.5,77,0.00,BKN,,0.00,162.0,WeatherDisplay:10.37,2013-01-19 15:09:00,
2013-01-19 09:14:00,42.2,35.2,29.86,SSW,194,18.4,18.4,76,0.00,BKN,,0.00,178.0,WeatherDisplay:10.37,2013-01-19 15:14:00,
2013-01-19 09:19:00,42.6,35.6,29.87,SW,220,11.5,11.5,76,0.00,BKN,,0.00,176.0,WeatherDisplay:10.37,2013-01-19 15:19:00,
2013-01-19 09:24:00,43.0,36.0,29.87,SW,229,6.9,6.9,76,0.00,SCT,,0.00,227.0,WeatherDisplay:10.37,2013-01-19 15:24:00,
2013-01-19 09:29:00,43.4,36.0,29.87,SW,229,16.1,16.1,75,0.00,SCT,,0.00,251.0,WeatherDisplay:10.37,2013-01-19 15:29:00,
2013-01-19 09:34:00,43.6,35.9,29.87,West,263,15.0,15.0,74,0.00,BKN,,0.00,146.0,WeatherDisplay:10.37,2013-01-19 15:34:00,
2013-01-19 09:39:00,43.8,36.0,29.87,SW,223,13.8,13.8,74,0.00,OVC,,0.00,113.0,WeatherDisplay:10.37,2013-01-19 15:39:00,
2013-01-19 09:44:00,43.9,36.1,29.87,South,190,14.0,14.0,74,0.00,OVC,,0.00,137.0,WeatherDisplay:10.37,2013-01-19 15:44:00,
2013-01-19 09:49:00,44.1,36.3,29.87,SSW,213,11.5,11.5,74,0.00,BKN,,0.00,230.0,WeatherDisplay:10.37,2013-01-19 15:49:00,
2013-01-19 09:54:00,44.5,36.4,29.87,SW,218,11.5,11.5,73,0.00,SCT,,0.00,346.0,WeatherDisplay:10.37,2013-01-19 15:54:00,
2013-01-19 09:59:00,45.0,36.9,29.86,SW,218,12.7,12.7,73,0.00,SCT,,0.00,244.0,WeatherDisplay:10.37,2013-01-19 15:59:00,
2013-01-19 10:04:00,45.1,36.6,29.86,SW,216,17.3,17.3,72,0.00,BKN,,0.00,220.0,WeatherDisplay:10.37,2013-01-19 16:04:00,
2013-01-19 10:09:00,45.2,36.7,29.86,SW,215,21.9,21.9,72,0.00,SCT,,0.00,410.0,WeatherDisplay:10.37,2013-01-19 16:09:00,
2013-01-19 10:14:00,45.5,37.0,29.85,SW,232,16.1,16.1,72,0.00,CLR,,0.00,490.0,WeatherDisplay:10.37,2013-01-19 16:14:00,
2013-01-19 10:19:00,45.8,36.9,29.85,SSW,211,23.0,23.0,71,0.00,SCT,,0.00,387.0,WeatherDisplay:10.37,2013-01-19 16:19:00,
2013-01-19 10:24:00,45.9,37.0,29.84,South,175,20.7,20.7,71,0.00,BKN,,0.00,246.0,WeatherDisplay:10.37,2013-01-19 16:24:00,
2013-01-19 10:29:00,46.0,37.1,29.85,WSW,238,11.5,11.5,71,0.00,BKN,,0.00,272.0,WeatherDisplay:10.37,2013-01-19 16:29:00,
2013-01-19 10:34:00,46.1,37.2,29.85,SW,225,11.5,11.5,71,0.00,SCT,,0.00,272.0,WeatherDisplay:10.37,2013-01-19 16:34:00,
2013-01-19 10:39:00,46.3,37.4,29.85,WSW,247,13.8,13.8,71,0.00,BKN,,0.00,251.0,WeatherDisplay:10.37,2013-01-19 16:39:00,
2013-01-19 10:44:00,46.5,37.2,29.85,SW,217,15.0,15.0,70,0.00,OVC,,0.00,192.0,WeatherDisplay:10.37,2013-01-19 16:44:00,
2013-01-19 10:49:00,46.5,36.9,29.85,SSW,206,17.3,17.3,69,0.00,OVC,,0.00,144.0,WeatherDisplay:10.37,2013-01-19 16:49:00,
2013-01-19 10:54:00,46.5,36.9,29.85,South,179,12.7,12.7,69,0.00,OVC,,0.00,141.0,WeatherDisplay:10.37,2013-01-19 16:54:00,
2013-01-19 10:59:00,46.4,36.8,29.85,SW,229,11.5,11.5,69,0.00,OVC,,0.00,158.0,WeatherDisplay:10.37,2013-01-19 16:59:00,
2013-01-19 11:05:00,46.4,36.8,29.84,SSW,210,17.3,17.3,69,0.00,OVC,,0.00,163.0,WeatherDisplay:10.37,2013-01-19 17:05:00,
2013-01-19 11:10:00,46.5,36.9,29.84,SW,217,11.5,11.5,69,0.00,OVC,,0.00,163.0,WeatherDisplay:10.37,2013-01-19 17:10:00,
2013-01-19 11:15:00,46.6,37.0,29.83,SW,221,11.5,11.5,69,0.00,OVC,,0.00,155.0,WeatherDisplay:10.37,2013-01-19 17:15:00,
2013-01-19 11:20:00,46.7,37.1,29.83,WSW,243,16.1,16.1,69,0.00,OVC,,0.00,169.0,WeatherDisplay:10.37,2013-01-19 17:20:00,
2013-01-19 11:25:00,46.7,36.7,29.82,SSW,212,16.1,16.1,68,0.00,OVC,,0.00,204.0,WeatherDisplay:10.37,2013-01-19 17:25:00,
2013-01-19 11:30:00,46.7,36.7,29.81,SW,214,21.9,21.9,68,0.00,BKN,,0.00,234.0,WeatherDisplay:10.37,2013-01-19 17:30:00,
2013-01-19 11:36:00,46.9,36.9,29.81,WSW,240,21.9,21.9,68,0.00,BKN,,0.00,223.0,WeatherDisplay:10.37,2013-01-19 17:36:00,
2013-01-19 11:41:00,47.0,37.0,29.81,SW,215,15.0,15.0,68,0.00,OVC,,0.00,200.0,WeatherDisplay:10.37,2013-01-19 17:41:00,
2013-01-19 11:46:00,47.0,36.6,29.82,SW,234,17.3,17.3,67,0.00,OVC,,0.00,190.0,WeatherDisplay:10.37,2013-01-19 17:46:00,
2013-01-19 11:53:00,47.1,36.7,29.81,SW,217,18.4,18.4,67,0.00,OVC,,0.00,214.0,WeatherDisplay:10.37,2013-01-19 17:53:00,
2013-01-19 11:58:00,47.1,36.7,29.79,SW,227,13.8,13.8,67,0.00,OVC,,0.00,202.0,WeatherDisplay:10.37,2013-01-19 17:58:00,
2013-01-19 12:03:00,47.2,36.8,29.79,SW,230,15.0,15.0,67,0.00,OVC,,0.00,197.0,WeatherDisplay:10.37,2013-01-19 18:03:00,
2013-01-19 12:09:00,47.3,36.9,29.80,West,261,21.9,21.9,67,0.00,OVC,,0.00,209.0,WeatherDisplay:10.37,2013-01-19 18:09:00,
2013-01-19 12:14:00,47.4,37.0,29.80,SW,230,11.5,11.5,67,0.00,BKN,,0.00,287.0,WeatherDisplay:10.37,2013-01-19 18:14:00,
2013-01-19 12:19:00,47.6,37.2,29.80,WSW,249,21.9,21.9,67,0.00,OVC,,0.00,146.0,WeatherDisplay:10.37,2013-01-19 18:19:00,
2013-01-19 12:24:00,47.4,37.0,29.79,SSW,211,16.1,16.1,67,0.00,OVC,,0.00,174.0,WeatherDisplay:10.37,2013-01-19 18:24:00,
2013-01-19 12:30:00,47.6,37.6,29.79,SW,225,17.3,17.3,68,0.00,BKN,,0.00,278.0,WeatherDisplay:10.37,2013-01-19 18:30:00,
2013-01-19 12:35:00,48.3,37.8,29.79,SSW,194,18.4,18.4,67,0.00,CLR,,0.00,554.0,WeatherDisplay:10.37,2013-01-19 18:35:00,
2013-01-19 12:40:00,49.1,38.2,29.79,SW,215,18.4,18.4,66,0.00,CLR,,0.00,795.0,WeatherDisplay:10.37,2013-01-19 18:40:00,
2013-01-19 12:45:00,48.9,37.6,29.79,SW,219,16.1,16.1,65,0.00,BKN,,0.00,276.0,WeatherDisplay:10.37,2013-01-19 18:45:00,
2013-01-19 12:50:00,49.2,37.9,29.79,SSW,202,17.3,17.3,65,0.00,FEW,,0.00,527.0,WeatherDisplay:10.37,2013-01-19 18:50:00,
2013-01-19 12:56:00,49.5,38.2,29.79,SW,229,16.1,16.1,65,0.00,FEW,,0.00,519.0,WeatherDisplay:10.37,2013-01-19 18:56:00,
2013-01-19 13:02:00,49.6,37.9,29.78,SW,217,19.6,19.6,64,0.00,FEW,,0.00,506.0,WeatherDisplay:10.37,2013-01-19 19:02:00,
2013-01-19 13:07:00,49.9,38.2,29.78,SSW,206,13.8,13.8,64,0.00,FEW,,0.00,497.0,WeatherDisplay:10.37,2013-01-19 19:07:00,
2013-01-19 13:13:00,49.9,37.8,29.78,SW,222,21.9,21.9,63,0.00,FEW,,0.00,490.0,WeatherDisplay:10.37,2013-01-19 19:13:00,
2013-01-19 13:18:00,50.2,38.1,29.78,WSW,242,17.3,17.3,63,0.00,FEW,,0.00,489.0,WeatherDisplay:10.37,2013-01-19 19:18:00,
2013-01-19 13:24:00,50.5,38.0,29.78,SW,225,16.1,16.1,62,0.00,FEW,,0.00,478.0,WeatherDisplay:10.37,2013-01-19 19:24:00,
2013-01-19 13:29:00,50.8,37.8,29.78,SW,221,24.2,24.2,61,0.00,FEW,,0.00,473.0,WeatherDisplay:10.37,2013-01-19 19:29:00,
2013-01-19 13:35:00,50.9,38.3,29.78,West,260,20.7,20.7,62,0.00,FEW,,0.00,464.0,WeatherDisplay:10.37,2013-01-19 19:35:00,
2013-01-19 13:40:00,51.0,38.0,29.77,SSW,194,18.4,18.4,61,0.00,FEW,,0.00,461.0,WeatherDisplay:10.37,2013-01-19 19:40:00,
2013-01-19 13:45:00,51.1,38.1,29.78,SSW,211,13.8,13.8,61,0.00,FEW,,0.00,452.0,WeatherDisplay:10.37,2013-01-19 19:45:00,
2013-01-19 13:50:00,51.4,38.0,29.77,SW,230,17.3,17.3,60,0.00,FEW,,0.00,441.0,WeatherDisplay:10.37,2013-01-19 19:50:00,
2013-01-19 13:56:00,51.5,38.1,29.78,WSW,248,15.0,15.0,60,0.00,FEW,,0.00,436.0,WeatherDisplay:10.37,2013-01-19 19:56:00,
2013-01-19 14:01:00,51.5,38.1,29.78,SW,231,15.0,15.0,60,0.00,FEW,,0.00,424.0,WeatherDisplay:10.37,2013-01-19 20:01:00,
2013-01-19 14:07:00,51.8,38.3,29.77,WSW,241,16.1,16.1,60,0.00,FEW,,0.00,415.0,WeatherDisplay:10.37,2013-01-19 20:07:00,
2013-01-19 14:13:00,51.9,38.0,29.78,SW,234,15.0,15.0,59,0.00,FEW,,0.00,404.0,WeatherDisplay:10.37,2013-01-19 20:13:00,
2013-01-19 14:18:00,51.9,38.0,29.78,WSW,254,19.6,19.6,59,0.00,FEW,,0.00,394.0,WeatherDisplay:10.37,2013-01-19 20:18:00,
2013-01-19 14:23:00,52.0,38.1,29.78,West,271,11.5,11.5,59,0.00,FEW,,0.00,383.0,WeatherDisplay:10.37,2013-01-19 20:23:00,
2013-01-19 14:28:00,52.1,37.8,29.78,WSW,246,20.7,20.7,58,0.00,FEW,,0.00,369.0,WeatherDisplay:10.37,2013-01-19 20:28:00,
2013-01-19 14:33:00,52.3,38.0,29.79,WNW,292,12.7,12.7,58,0.00,FEW,,0.00,362.0,WeatherDisplay:10.37,2013-01-19 20:33:00,
2013-01-19 14:38:00,52.4,38.5,29.78,WSW,246,14.0,14.0,59,0.00,FEW,,0.00,352.0,WeatherDisplay:10.37,2013-01-19 20:38:00,
2013-01-19 14:43:00,52.5,38.1,29.78,WSW,255,15.0,15.0,58,0.00,FEW,,0.00,339.0,WeatherDisplay:10.37,2013-01-19 20:43:00,
2013-01-19 14:48:00,52.6,37.8,29.78,West,275,15.0,15.0,57,0.00,FEW,,0.00,329.0,WeatherDisplay:10.37,2013-01-19 20:48:00,
2013-01-19 14:53:00,52.7,37.9,29.78,WSW,250,16.1,16.1,57,0.00,FEW,,0.00,315.0,WeatherDisplay:10.37,2013-01-19 20:53:00,
2013-01-19 14:58:00,52.7,37.4,29.78,WSW,250,5.8,6.6,56,0.00,FEW,,0.00,304.0,WeatherDisplay:10.37,2013-01-19 20:58:00,
2013-01-19 15:03:00,52.8,37.5,29.79,West,261,20.7,20.7,56,0.00,FEW,,0.00,290.0,WeatherDisplay:10.37,2013-01-19 21:03:00,
2013-01-19 15:09:00,52.7,37.4,29.79,WSW,238,15.0,15.0,56,0.00,FEW,,0.00,279.0,WeatherDisplay:10.37,2013-01-19 21:09:00,
2013-01-19 15:14:00,52.7,37.4,29.80,West,276,17.3,17.3,56,0.00,FEW,,0.00,264.0,WeatherDisplay:10.37,2013-01-19 21:14:00,
2013-01-19 15:19:00,52.7,37.4,29.80,WSW,243,16.1,16.1,56,0.00,FEW,,0.00,251.0,WeatherDisplay:10.37,2013-01-19 21:19:00,
2013-01-19 15:24:00,52.7,37.0,29.80,West,260,24.2,24.2,55,0.00,FEW,,0.00,239.0,WeatherDisplay:10.37,2013-01-19 21:24:00,
2013-01-19 15:29:00,52.7,37.0,29.80,West,272,13.8,13.8,55,0.00,FEW,,0.00,225.0,WeatherDisplay:10.37,2013-01-19 21:29:00,
2013-01-19 15:35:00,52.7,37.0,29.80,WSW,240,18.4,18.4,55,0.00,SCT,,0.00,209.0,WeatherDisplay:10.37,2013-01-19 21:35:00,
2013-01-19 15:42:00,52.7,37.0,29.81,WSW,242,15.0,15.0,55,0.00,SCT,,0.00,192.0,WeatherDisplay:10.37,2013-01-19 21:42:00,
2013-01-19 15:47:00,52.8,37.1,29.81,WSW,252,9.2,9.2,55,0.00,SCT,,0.00,179.0,WeatherDisplay:10.37,2013-01-19 21:47:00,
2013-01-19 15:52:00,52.7,37.0,29.81,West,264,10.4,10.4,55,0.00,SCT,,0.00,167.0,WeatherDisplay:10.37,2013-01-19 21:52:00,
2013-01-19 15:57:00,52.7,37.0,29.81,WSW,252,9.2,9.2,55,0.00,SCT,,0.00,134.0,WeatherDisplay:10.37,2013-01-19 21:57:00,
2013-01-19 16:02:00,52.6,36.4,29.81,WNW,297,15.0,15.0,54,0.00,SCT,,0.00,107.0,WeatherDisplay:10.37,2013-01-19 22:02:00,
2013-01-19 16:09:00,52.3,36.1,29.82,West,270,16.1,16.1,54,0.00,BKN,,0.00,72.0,WeatherDisplay:10.37,2013-01-19 22:09:00,
2013-01-19 16:14:00,52.1,35.9,29.82,SSW,211,17.3,17.3,54,0.00,BKN,,0.00,69.0,WeatherDisplay:10.37,2013-01-19 22:14:00,
2013-01-19 16:19:00,51.9,35.8,29.82,West,273,12.7,12.7,54,0.00,OVC,,0.00,51.0,WeatherDisplay:10.37,2013-01-19 22:19:00,
2013-01-19 16:24:00,51.7,36.0,29.82,WSW,243,12.7,12.7,55,0.00,OVC,,0.00,46.0,WeatherDisplay:10.37,2013-01-19 22:24:00,
2013-01-19 16:29:00,51.6,35.9,29.82,WNW,282,13.8,13.8,55,0.00,OVC,,0.00,39.0,WeatherDisplay:10.37,2013-01-19 22:29:00,
2013-01-19 16:34:00,51.3,35.7,29.83,SW,227,20.7,20.7,55,0.00,OVC,,0.00,26.0,WeatherDisplay:10.37,2013-01-19 22:34:00,
2013-01-19 16:39:00,51.1,35.9,29.83,WSW,250,16.1,16.1,56,0.00,OVC,,0.00,23.0,WeatherDisplay:10.37,2013-01-19 22:39:00,
2013-01-19 16:44:00,50.8,36.1,29.83,WSW,252,13.0,13.0,57,0.00,OVC,,0.00,16.0,WeatherDisplay:10.37,2013-01-19 22:44:00,
2013-01-19 16:49:00,50.5,35.8,29.84,WSW,248,16.1,16.1,57,0.00,OVC,,0.00,12.0,WeatherDisplay:10.37,2013-01-19 22:49:00,
2013-01-19 16:54:00,50.3,35.6,29.83,WSW,252,11.5,11.5,57,0.00,BKN,,0.00,9.0,WeatherDisplay:10.37,2013-01-19 22:54:00,
2013-01-19 16:59:00,49.9,35.3,29.84,WSW,253,11.5,11.5,57,0.00,CLR,,0.00,7.0,WeatherDisplay:10.37,2013-01-19 22:59:00,
2013-01-19 17:05:00,49.5,35.3,29.84,West,267,9.2,9.2,58,0.00,OVC,,0.00,0.0,WeatherDisplay:10.37,2013-01-19 23:05:00,
2013-01-19 17:10:00,49.2,35.5,29.85,West,268,11.5,11.5,59,0.00,OVC,,0.00,0.0,WeatherDisplay:10.37,2013-01-19 23:10:00,
2013-01-19 17:15:00,49.0,35.7,29.85,West,276,10.4,10.4,60,0.00,OVC,,0.00,0.0,WeatherDisplay:10.37,2013-01-19 23:15:00,
2013-01-19 17:20:00,48.8,35.5,29.85,West,273,11.5,11.5,60,0.00,OVC,,0.00,0.0,WeatherDisplay:10.37,2013-01-19 23:20:00,
2013-01-19 17:26:00,48.5,35.7,29.86,WNW,291,11.5,11.5,61,0.00,OVC,,0.00,0.0,WeatherDisplay:10.37,2013-01-19 23:26:00,
2013-01-19 17:32:00,48.2,35.8,29.86,West,259,10.4,10.4,62,0.00,OVC,,0.00,0.0,WeatherDisplay:10.37,2013-01-19 23:32:00,
2013-01-19 17:37:00,48.0,35.6,29.87,West,263,11.5,11.5,62,0.00,CLR,,0.00,0.0,WeatherDisplay:10.37,2013-01-19 23:37:00,
2013-01-19 17:42:00,47.8,35.8,29.87,West,281,11.5,11.5,63,0.00,CLR,,0.00,0.0,WeatherDisplay:10.37,2013-01-19 23:42:00,
2013-01-19 17:47:00,47.6,35.6,29.87,West,262,12.0,12.0,63,0.00,CLR,,0.00,0.0,WeatherDisplay:10.37,2013-01-19 23:47:00,
2013-01-19 17:52:00,47.6,36.0,29.87,West,272,15.0,15.0,64,0.00,CLR,,0.00,0.0,WeatherDisplay:10.37,2013-01-19 23:52:00,
2013-01-19 17:59:00,47.6,36.0,29.88,WSW,257,12.7,12.7,64,0.00,CLR,,0.00,0.0,WeatherDisplay:10.37,2013-01-19 23:59:00,
2013-01-19 18:04:00,47.4,35.8,29.88,West,268,9.2,9.2,64,0.00,CLR,,0.00,0.0,WeatherDisplay:10.37,2013-01-20 00:04:00,
2013-01-19 18:09:00,47.1,35.9,29.89,West,273,11.5,11.5,65,0.00,CLR,,0.00,0.0,WeatherDisplay:10.37,2013-01-20 00:09:00,
2013-01-19 18:15:00,47.0,35.8,29.89,West,263,15.0,15.0,65,0.00,CLR,,0.00,0.0,WeatherDisplay:10.37,2013-01-20 00:15:00,
2013-01-19 18:20:00,47.2,36.0,29.89,WNW,282,18.4,18.4,65,0.00,CLR,,0.00,0.0,WeatherDisplay:10.37,2013-01-20 00:20:00,
2013-01-19 18:25:00,47.5,35.9,29.89,West,268,19.6,19.6,64,0.00,CLR,,0.00,0.0,WeatherDisplay:10.37,2013-01-20 00:25:00,
2013-01-19 18:31:00,47.4,35.8,29.89,West,279,13.8,13.8,64,0.00,CLR,,0.00,0.0,WeatherDisplay:10.37,2013-01-20 00:31:00,
2013-01-19 18:37:00,47.1,35.9,29.89,WSW,250,17.3,17.3,65,0.00,CLR,,0.00,0.0,WeatherDisplay:10.37,2013-01-20 00:37:00,
2013-01-19 18:43:00,47.1,35.5,29.90,West,271,17.3,17.3,64,0.00,CLR,,0.00,0.0,WeatherDisplay:10.37,2013-01-20 00:43:00,
2013-01-19 18:48:00,47.0,35.4,29.90,WNW,298,19.6,19.6,64,0.00,CLR,,0.00,0.0,WeatherDisplay:10.37,2013-01-20 00:48:00,
2013-01-19 18:53:00,46.9,35.4,29.90,West,269,20.7,20.7,64,0.00,CLR,,0.00,0.0,WeatherDisplay:10.37,2013-01-20 00:53:00,
2013-01-19 18:58:00,46.7,35.2,29.91,West,279,13.0,13.0,64,0.00,CLR,,0.00,0.0,WeatherDisplay:10.37,2013-01-20 00:58:00,
2013-01-19 19:04:00,46.4,35.3,29.91,WNW,288,11.5,11.5,65,0.00,CLR,,0.00,0.0,WeatherDisplay:10.37,2013-01-20 01:04:00,
2013-01-19 19:09:00,46.2,35.1,29.91,WSW,240,16.1,16.1,65,0.00,CLR,,0.00,0.0,WeatherDisplay:10.37,2013-01-20 01:09:00,
2013-01-19 19:15:00,46.1,35.4,29.92,West,269,16.1,16.1,66,0.00,CLR,,0.00,0.0,WeatherDisplay:10.37,2013-01-20 01:15:00,
2013-01-19 19:20:00,46.0,35.3,29.92,WNW,283,19.6,19.6,66,0.00,CLR,,0.00,0.0,WeatherDisplay:10.37,2013-01-20 01:20:00,
2013-01-19 19:25:00,45.9,35.2,29.92,WNW,294,11.5,11.5,66,0.00,CLR,,0.00,0.0,WeatherDisplay:10.37,2013-01-20 01:25:00,
2013-01-19 19:30:00,45.7,35.0,29.92,WNW,292,15.0,15.0,66,0.00,CLR,,0.00,0.0,WeatherDisplay:10.37,2013-01-20 01:30:00,
2013-01-19 19:37:00,45.4,35.1,29.93,WNW,292,20.7,20.7,67,0.00,CLR,,0.00,0.0,WeatherDisplay:10.37,2013-01-20 01:37:00,
2013-01-19 19:44:00,45.1,34.8,29.93,West,271,19.6,19.6,67,0.00,CLR,,0.00,0.0,WeatherDisplay:10.37,2013-01-20 01:44:00,
2013-01-19 19:49:00,45.0,35.1,29.93,West,280,15.0,15.0,68,0.00,CLR,,0.00,0.0,WeatherDisplay:10.37,2013-01-20 01:49:00,
2013-01-19 19:54:00,44.6,34.7,29.94,WNW,297,12.7,12.7,68,0.00,CLR,,0.00,0.0,WeatherDisplay:10.37,2013-01-20 01:54:00,
2013-01-19 19:59:00,44.2,34.7,29.94,WNW,286,16.1,16.1,69,0.00,CLR,,0.00,0.0,WeatherDisplay:10.37,2013-01-20 01:59:00,
2013-01-19 20:05:00,44.1,34.6,29.94,WNW,288,24.2,24.2,69,0.00,CLR,,0.00,0.0,WeatherDisplay:10.37,2013-01-20 02:05:00,
2013-01-19 20:10:00,44.1,34.2,29.94,WNW,288,18.4,18.4,68,0.00,CLR,,0.00,0.0,WeatherDisplay:10.37,2013-01-20 02:10:00,
2013-01-19 20:15:00,44.0,33.7,29.95,West,281,20.7,20.7,67,0.00,CLR,,0.00,0.0,WeatherDisplay:10.37,2013-01-20 02:15:00,
2013-01-19 20:20:00,43.7,33.5,29.95,WSW,255,19.6,19.6,67,0.00,CLR,,0.00,0.0,WeatherDisplay:10.37,2013-01-20 02:20:00,
2013-01-19 20:26:00,43.4,33.2,29.96,WNW,290,19.6,19.6,67,0.00,CLR,,0.00,0.0,WeatherDisplay:10.37,2013-01-20 02:26:00,
2013-01-19 20:31:00,43.1,33.3,29.96,West,274,20.7,20.7,68,0.00,CLR,,0.00,0.0,WeatherDisplay:10.37,2013-01-20 02:31:00,
2013-01-19 20:36:00,42.8,33.0,29.96,WNW,291,24.2,24.2,68,0.00,CLR,,0.00,0.0,WeatherDisplay:10.37,2013-01-20 02:36:00,
2013-01-19 20:42:00,42.4,32.9,29.96,WNW,283,17.3,17.3,69,0.00,CLR,,0.00,0.0,WeatherDisplay:10.37,2013-01-20 02:42:00,
2013-01-19 20:47:00,42.0,32.6,29.97,NW,305,20.7,20.7,69,0.00,CLR,,0.00,0.0,WeatherDisplay:10.37,2013-01-20 02:47:00,
2013-01-19 20:53:00,41.7,31.5,29.97,West,266,23.0,23.0,67,0.00,CLR,,0.00,0.0,WeatherDisplay:10.37,2013-01-20 02:53:00,
2013-01-19 20:58:00,41.4,29.7,29.98,WSW,257,27.6,27.6,63,0.00,CLR,,0.00,0.0,WeatherDisplay:10.37,2013-01-20 02:58:00,
2013-01-19 21:03:00,41.1,28.7,29.97,WNW,288,27.6,27.6,61,0.00,CLR,,0.00,0.0,WeatherDisplay:10.37,2013-01-20 03:03:00,
2013-01-19 21:09:00,40.6,29.0,29.98,NNW,347,28.8,28.8,63,0.00,CLR,,0.00,0.0,WeatherDisplay:10.37,2013-01-20 03:09:00,
2013-01-19 21:14:00,39.1,27.9,30.00,WNW,292,34.5,34.5,64,0.00,CLR,,0.00,0.0,WeatherDisplay:10.37,2013-01-20 03:14:00,
2013-01-19 21:20:00,38.0,27.6,30.00,WNW,288,24.2,24.2,66,0.00,CLR,,0.00,0.0,WeatherDisplay:10.37,2013-01-20 03:20:00,
2013-01-19 21:25:00,37.0,27.1,30.01,WNW,299,24.2,24.2,67,0.00,CLR,,0.00,0.0,WeatherDisplay:10.37,2013-01-20 03:25:00,
2013-01-19 21:30:00,36.0,25.7,30.02,WNW,303,27.6,27.6,66,0.00,CLR,,0.00,0.0,WeatherDisplay:10.37,2013-01-20 03:30:00,
2013-01-19 21:35:00,34.8,24.2,30.03,NW,304,24.2,24.2,65,0.00,CLR,,0.00,0.0,WeatherDisplay:10.37,2013-01-20 03:35:00,
2013-01-19 21:40:00,34.1,23.9,30.03,West,280,21.9,21.9,66,0.00,CLR,,0.00,0.0,WeatherDisplay:10.37,2013-01-20 03:40:00,
2013-01-19 21:45:00,33.6,23.8,30.04,NW,304,21.9,21.9,67,0.00,CLR,,0.00,0.0,WeatherDisplay:10.37,2013-01-20 03:45:00,
2013-01-19 21:50:00,33.1,23.7,30.04,NNE,13,25.3,25.3,68,0.00,CLR,,0.00,0.0,WeatherDisplay:10.37,2013-01-20 03:50:00,
2013-01-19 21:56:00,32.2,22.1,30.05,NNW,333,33.4,33.4,66,0.00,CLR,,0.00,0.0,WeatherDisplay:10.37,2013-01-20 03:56:00,
2013-01-19 22:01:00,31.4,20.6,30.05,WNW,285,20.7,20.7,64,0.00,CLR,,0.00,0.0,WeatherDisplay:10.37,2013-01-20 04:01:00,
2013-01-19 22:07:00,30.8,18.9,30.06,West,280,17.3,17.3,61,0.00,CLR,,0.00,0.0,WeatherDisplay:10.37,2013-01-20 04:07:00,
2013-01-19 22:12:00,30.4,16.1,30.07,WNW,287,28.8,28.8,55,0.00,CLR,,0.00,0.0,WeatherDisplay:10.37,2013-01-20 04:12:00,
2013-01-19 22:17:00,30.1,15.0,30.07,West,275,20.7,20.7,53,0.00,CLR,,0.00,0.0,WeatherDisplay:10.37,2013-01-20 04:17:00,
2013-01-19 22:22:00,29.6,14.1,30.07,WNW,291,28.8,28.8,52,0.00,CLR,,0.00,0.0,WeatherDisplay:10.37,2013-01-20 04:22:00,
2013-01-19 22:27:00,29.1,13.6,30.07,WNW,302,29.9,29.9,52,0.00,CLR,,0.00,0.0,WeatherDisplay:10.37,2013-01-20 04:27:00,
2013-01-19 22:32:00,28.6,13.2,30.08,WNW,298,29.9,29.9,52,0.00,CLR,,0.00,0.0,WeatherDisplay:10.37,2013-01-20 04:32:00,
2013-01-19 22:37:00,28.0,13.1,30.07,NW,304,25.3,25.3,53,0.00,CLR,,0.00,0.0,WeatherDisplay:10.37,2013-01-20 04:37:00,
2013-01-19 22:43:00,27.5,13.0,30.08,WNW,298,26.5,26.5,54,0.00,CLR,,0.00,0.0,WeatherDisplay:10.37,2013-01-20 04:43:00,
2013-01-19 22:48:00,27.1,13.1,30.08,West,280,26.5,26.5,55,0.00,CLR,,0.00,0.0,WeatherDisplay:10.37,2013-01-20 04:48:00,
2013-01-19 22:53:00,26.8,13.2,30.09,NW,319,19.0,19.0,56,0.00,CLR,,0.00,0.0,WeatherDisplay:10.37,2013-01-20 04:53:00,
2013-01-19 22:58:00,26.5,13.3,30.09,WNW,295,21.9,21.9,57,0.00,CLR,,0.00,0.0,WeatherDisplay:10.37,2013-01-20 04:58:00,
2013-01-19 23:01:00,26.2,13.0,30.09,NW,306,24.2,24.2,57,0.00,CLR,,0.00,0.0,WeatherDisplay:10.37,2013-01-20 05:01:00,
2013-01-19 23:03:00,26.1,12.9,30.09,NW,319,21.9,21.9,57,0.00,CLR,,0.00,0.0,WeatherDisplay:10.37,2013-01-20 05:03:00,
2013-01-19 23:04:00,26.0,13.2,30.09,NNW,329,12.7,12.7,58,0.00,CLR,,0.00,0.0,WeatherDisplay:10.37,2013-01-20 05:04:00,
2013-01-19 23:09:00,25.7,12.6,30.09,WNW,302,20.7,20.7,57,0.00,CLR,,0.00,0.0,WeatherDisplay:10.37,2013-01-20 05:09:00,
2013-01-19 23:14:00,25.5,12.4,30.10,WNW,285,20.7,20.7,57,0.00,CLR,,0.00,0.0,WeatherDisplay:10.37,2013-01-20 05:14:00,
2013-01-19 23:19:00,25.4,11.9,30.10,NW,322,15.0,15.0,56,0.00,CLR,,0.00,0.0,WeatherDisplay:10.37,2013-01-20 05:19:00,
2013-01-19 23:24:00,25.3,12.2,30.11,WNW,292,24.2,24.2,57,0.00,CLR,,0.00,0.0,WeatherDisplay:10.37,2013-01-20 05:24:00,
2013-01-19 23:29:00,25.1,11.6,30.12,WNW,288,21.0,21.0,56,0.00,CLR,,0.00,0.0,WeatherDisplay:10.37,2013-01-20 05:29:00,
2013-01-19 23:34:00,24.9,11.8,30.12,NW,318,23.0,23.0,57,0.00,CLR,,0.00,0.0,WeatherDisplay:10.37,2013-01-20 05:34:00,
2013-01-19 23:39:00,24.8,12.1,30.12,WNW,294,11.5,11.5,58,0.00,CLR,,0.00,0.0,WeatherDisplay:10.37,2013-01-20 05:39:00,
2013-01-19 23:44:00,24.6,12.3,30.13,NW,313,26.5,26.5,59,0.00,CLR,,0.00,0.0,WeatherDisplay:10.37,2013-01-20 05:44:00,
2013-01-19 23:49:00,24.3,11.2,30.14,West,261,26.5,26.5,57,0.00,CLR,,0.00,0.0,WeatherDisplay:10.37,2013-01-20 05:49:00,
2013-01-19 23:54:00,23.9,10.9,30.14,NW,304,11.5,11.5,57,0.00,CLR,,0.00,0.0,WeatherDisplay:10.37,2013-01-20 05:54:00,
2013-01-19 23:59:00,23.8,11.2,30.14,WNW,290,17.3,17.3,58,0.00,CLR,,0.00,0.0,WeatherDisplay:10.37,2013-01-20 05:59:00,